createdAt,value
2018-07-11T00:01:26.066Z,22.00
2018-07-11T00:06:25.044Z,26.63
2018-07-11T00:11:23.114Z,27.87
2018-07-11T00:16:20.828Z,28.77
2018-07-11T00:21:18.592Z,27.33
2018-07-11T00:26:16.356Z,28.23
2018-07-11T00:31:14.133Z,29.03
2018-07-11T00:36:11.935Z,25.87
2018-07-11T00:41:09.701Z,25.73
2018-07-11T00:46:07.469Z,27.07
2018-07-11T00:51:05.242Z,28.73
2018-07-11T00:56:02.995Z,31.00
2018-07-11T01:01:14.237Z,34.20
2018-07-11T01:06:12.074Z,34.10
2018-07-11T01:11:16.786Z,34.50
2018-07-11T01:16:15.704Z,31.80
2018-07-11T01:21:13.387Z,30.57
2018-07-11T01:26:11.262Z,28.27
2018-07-11T01:31:08.975Z,25.40
2018-07-11T01:36:07.838Z,24.30
2018-07-11T01:41:05.610Z,23.80
2018-07-11T01:46:03.378Z,23.47
2018-07-11T01:51:01.132Z,20.77
2018-07-11T01:55:58.867Z,18.13
2018-07-11T02:00:56.643Z,19.73
2018-07-11T02:05:54.762Z,17.10
2018-07-11T02:10:52.656Z,15.97
2018-07-11T02:15:50.556Z,18.23
2018-07-11T02:20:48.331Z,22.57
2018-07-11T02:25:47.247Z,18.17
2018-07-11T02:30:45.071Z,21.73
2018-07-11T02:35:42.989Z,18.90
2018-07-11T02:40:40.746Z,18.23
2018-07-11T02:45:38.470Z,19.57
2018-07-11T02:50:36.265Z,18.53
2018-07-11T02:55:34.012Z,20.40
2018-07-11T03:00:31.738Z,18.17
2018-07-11T03:05:30.997Z,16.97
2018-07-11T03:10:28.951Z,16.07
2018-07-11T03:15:26.759Z,14.03
2018-07-11T03:20:24.571Z,16.07
2018-07-11T03:25:22.286Z,16.37
2018-07-11T03:30:20.400Z,15.37
2018-07-11T03:35:19.661Z,15.20
2018-07-11T03:40:17.404Z,17.50
2018-07-11T03:45:15.190Z,14.80
2018-07-11T03:50:12.961Z,17.80
2018-07-11T03:55:10.671Z,17.47
2018-07-11T04:00:08.413Z,16.70
2018-07-11T04:05:07.665Z,15.47
2018-07-11T04:10:05.392Z,20.75
2018-07-11T04:15:04.196Z,15.67
2018-07-11T04:20:01.932Z,16.47
2018-07-11T04:24:59.734Z,16.10
2018-07-11T04:29:57.495Z,15.17
2018-07-11T04:34:59.068Z,15.90
2018-07-11T04:39:56.866Z,15.00
2018-07-11T04:44:54.654Z,15.10
2018-07-11T04:49:52.439Z,13.00
2018-07-11T04:54:50.274Z,15.07
2018-07-11T04:59:47.988Z,16.23
2018-07-11T05:04:52.845Z,15.87
2018-07-11T05:09:50.778Z,13.50
2018-07-11T05:14:48.502Z,15.30
2018-07-11T05:19:46.249Z,15.33
2018-07-11T05:24:43.996Z,14.07
2018-07-11T05:29:41.621Z,14.70
2018-07-11T05:34:46.545Z,13.57
2018-07-11T05:39:44.303Z,14.63
2018-07-11T05:44:42.047Z,13.60
2018-07-11T05:49:39.742Z,11.93
2018-07-11T05:54:37.459Z,13.07
2018-07-11T05:59:35.166Z,14.17
2018-07-11T06:04:36.645Z,12.03
2018-07-11T06:09:34.485Z,12.23
2018-07-11T06:14:32.311Z,12.30
2018-07-11T06:19:30.028Z,10.70
2018-07-11T06:24:27.745Z,12.27
2018-07-11T06:29:25.459Z,10.80
2018-07-11T06:34:37.048Z,10.70
2018-07-11T06:39:35.914Z,11.00
2018-07-11T06:44:33.718Z,10.03
2018-07-11T06:49:31.494Z,9.33
2018-07-11T06:54:29.238Z,11.20
2018-07-11T06:59:26.979Z,10.33
2018-07-11T07:09:37.835Z,11.23
2018-07-11T07:14:35.550Z,11.70
2018-07-11T07:19:33.279Z,10.33
2018-07-11T07:24:30.990Z,12.50
2018-07-11T07:29:28.726Z,11.13
2018-07-11T07:34:33.277Z,10.97
2018-07-11T07:39:31.629Z,12.40
2018-07-11T07:44:29.379Z,11.23
2018-07-11T07:49:27.551Z,12.20
2018-07-11T07:54:29.490Z,10.63
2018-07-11T07:59:27.312Z,13.40
2018-07-11T08:04:37.760Z,14.70
2018-07-11T08:09:35.932Z,14.67
2018-07-11T08:14:33.630Z,13.87
2018-07-11T08:19:31.366Z,12.70
2018-07-11T08:24:40.278Z,12.60
2018-07-11T08:31:11.122Z,13.10
2018-07-11T08:36:32.528Z,14.47
2018-07-11T08:43:46.630Z,14.53
2018-07-11T08:48:57.846Z,13.77
2018-07-11T08:54:07.730Z,14.10
2018-07-11T08:59:30.863Z,13.53
2018-07-11T09:04:50.352Z,13.23
2018-07-11T09:10:11.067Z,14.85
2018-07-11T09:15:27.493Z,15.23
2018-07-11T09:22:44.920Z,14.73
2018-07-11T09:27:42.708Z,12.43
2018-07-11T09:32:40.507Z,14.60
2018-07-11T09:37:38.260Z,14.50
2018-07-11T09:42:36.015Z,14.30
2018-07-11T09:47:33.811Z,14.57
2018-07-11T09:52:31.570Z,16.67
2018-07-11T09:57:29.350Z,15.43
2018-07-11T10:02:27.176Z,15.23
2018-07-11T10:07:25.974Z,15.07
2018-07-11T10:12:23.728Z,15.17
2018-07-11T10:17:21.447Z,15.03
2018-07-11T10:22:19.207Z,15.57
2018-07-11T10:27:17.042Z,15.30
2018-07-11T10:32:14.786Z,16.20
2018-07-11T10:37:12.594Z,13.90
2018-07-11T10:42:15.416Z,16.87
2018-07-11T10:47:18.196Z,16.17
2018-07-11T10:52:21.229Z,17.13
2018-07-11T10:57:23.928Z,13.13
2018-07-11T11:02:28.911Z,16.67
2018-07-11T11:07:31.176Z,15.90
2018-07-11T11:12:34.153Z,15.83
2018-07-11T11:17:36.497Z,15.50
2018-07-11T11:22:34.406Z,14.30
2018-07-11T11:27:32.134Z,15.30
2018-07-11T11:32:30.378Z,14.47
2018-07-11T11:37:28.126Z,16.07
2018-07-11T11:42:28.987Z,15.30
2018-07-11T11:47:27.793Z,16.83
2018-07-11T11:52:25.657Z,14.43
2018-07-11T11:57:23.512Z,13.80
2018-07-11T12:02:21.535Z,15.27
2018-07-11T12:07:19.411Z,14.70
2018-07-11T12:12:17.088Z,14.10
2018-07-11T12:17:14.871Z,12.57
2018-07-11T12:22:18.722Z,14.40
2018-07-11T12:27:16.783Z,14.60
2018-07-11T12:32:14.503Z,13.97
2018-07-11T12:37:12.389Z,15.77
2018-07-11T12:42:10.148Z,14.20
2018-07-11T12:47:13.521Z,14.77
2018-07-11T12:52:11.249Z,15.87
2018-07-11T12:57:09.583Z,12.67
2018-07-11T13:02:07.395Z,12.47
2018-07-11T13:07:05.553Z,12.93
2018-07-11T13:12:03.379Z,12.13
2018-07-11T13:17:01.030Z,12.80
2018-07-11T13:21:58.778Z,12.27
2018-07-11T13:26:56.524Z,11.87
2018-07-11T13:31:54.347Z,11.73
2018-07-11T13:36:52.347Z,12.80
2018-07-11T13:41:50.848Z,10.93
2018-07-11T13:46:48.624Z,12.73
2018-07-11T13:51:46.397Z,12.77
2018-07-11T13:56:44.658Z,13.30
2018-07-11T14:01:42.445Z,14.53
2018-07-11T14:06:40.247Z,13.53
2018-07-11T14:11:38.651Z,11.43
2018-07-11T14:16:38.240Z,12.67
2018-07-11T14:21:36.082Z,10.60
2018-07-11T14:26:33.877Z,10.90
2018-07-11T14:31:32.953Z,10.67
2018-07-11T14:36:31.003Z,10.23
2018-07-11T14:41:28.987Z,12.00
2018-07-11T14:46:28.500Z,12.77
2018-07-11T14:51:27.742Z,12.10
2018-07-11T14:56:25.547Z,12.50
2018-07-11T15:01:25.188Z,14.17
2018-07-11T15:06:26.712Z,12.53
2018-07-11T15:11:28.240Z,11.93
2018-07-11T15:16:30.012Z,11.50
2018-07-11T15:21:32.960Z,11.97
2018-07-11T15:26:31.197Z,11.37
2018-07-11T15:31:28.906Z,9.67
2018-07-11T15:36:26.701Z,9.23
2018-07-11T15:41:28.190Z,9.70
2018-07-11T15:46:28.947Z,9.00
2018-07-11T15:51:30.812Z,8.70
2018-07-11T15:56:32.998Z,9.77
2018-07-11T16:01:31.669Z,9.30
2018-07-11T16:06:33.813Z,9.50
2018-07-11T16:11:31.632Z,9.20
2018-07-11T16:16:29.472Z,9.00
2018-07-11T16:21:27.783Z,7.83
2018-07-11T16:26:28.624Z,7.73
2018-07-11T16:31:26.738Z,8.67
2018-07-11T16:36:24.497Z,7.13
2018-07-11T16:41:22.329Z,7.20
2018-07-11T16:46:20.157Z,7.20
2018-07-11T16:51:17.983Z,7.17
2018-07-11T16:56:15.766Z,7.30
2018-07-11T17:01:13.611Z,8.00
2018-07-11T17:06:11.686Z,7.47
2018-07-11T17:11:19.507Z,7.53
2018-07-11T17:16:17.851Z,6.70
2018-07-11T17:21:25.686Z,7.10
2018-07-11T17:26:25.257Z,7.03
2018-07-11T17:31:23.271Z,7.97
2018-07-11T17:36:21.063Z,7.23
2018-07-11T17:41:18.864Z,6.90
2018-07-11T17:46:20.344Z,7.60
2018-07-11T17:53:26.839Z,8.77
2018-07-11T17:58:50.460Z,8.43
2018-07-11T18:03:56.929Z,9.17
2018-07-11T18:09:04.477Z,9.33
2018-07-11T18:14:02.332Z,11.77
2018-07-11T18:19:10.958Z,11.70
2018-07-11T18:25:24.943Z,13.60
2018-07-11T18:30:52.494Z,13.60
2018-07-11T18:38:09.368Z,15.07
2018-07-11T18:44:36.035Z,16.33
2018-07-11T18:49:59.432Z,15.80
2018-07-11T18:55:16.009Z,15.47
2018-07-11T19:00:58.110Z,16.03
2018-07-11T19:10:27.279Z,17.47
2018-07-11T19:15:51.480Z,14.60
2018-07-11T19:21:26.527Z,10.13
2018-07-11T19:26:36.332Z,9.60
2018-07-11T19:33:04.839Z,8.13
2018-07-11T19:38:12.798Z,10.57
2018-07-11T19:44:25.787Z,10.07
2018-07-11T19:49:36.925Z,12.70
2018-07-11T19:55:12.363Z,12.53
2018-07-11T20:00:11.174Z,14.70
2018-07-11T20:05:11.279Z,14.60
2018-07-11T20:10:12.118Z,15.83
2018-07-11T20:15:10.262Z,18.07
2018-07-11T20:20:09.276Z,20.60
2018-07-11T20:25:07.029Z,19.73
2018-07-11T20:30:06.411Z,19.60
2018-07-11T20:35:05.576Z,21.33
2018-07-11T20:40:03.326Z,19.40
2018-07-11T20:45:01.055Z,19.10
2018-07-11T20:49:59.839Z,17.20
2018-07-11T20:55:03.345Z,16.60
2018-07-11T21:00:15.902Z,16.33
2018-07-11T21:05:29.524Z,15.60
2018-07-11T21:12:45.329Z,14.53
2018-07-11T21:19:01.068Z,13.20
2018-07-11T21:23:59.829Z,10.40
2018-07-11T21:28:57.586Z,9.23
2018-07-11T21:33:57.310Z,9.63
2018-07-11T21:38:58.307Z,8.30
2018-07-11T21:43:56.047Z,7.20
2018-07-11T21:48:57.061Z,8.70
2018-07-11T21:53:56.008Z,7.60
2018-07-11T21:58:56.617Z,7.60
2018-07-11T22:03:56.913Z,8.87
2018-07-11T22:08:58.895Z,8.97
2018-07-11T22:14:02.527Z,7.73
2018-07-11T22:19:00.569Z,12.20
2018-07-11T22:23:57.139Z,10.17
2018-07-11T22:28:53.715Z,11.23
2018-07-11T22:33:50.283Z,10.77
2018-07-11T22:38:46.879Z,11.13
2018-07-11T22:43:43.447Z,10.90
2018-07-11T22:48:40.020Z,11.00
2018-07-11T22:53:36.599Z,11.97
2018-07-11T22:58:33.511Z,12.63
2018-07-11T23:03:30.087Z,12.43
2018-07-11T23:08:26.900Z,11.60
2018-07-11T23:13:23.490Z,12.07
2018-07-11T23:18:20.179Z,12.00
2018-07-11T23:23:16.756Z,13.77
2018-07-11T23:28:13.337Z,14.33
2018-07-11T23:33:09.911Z,14.17
2018-07-11T23:38:06.483Z,14.20
2018-07-11T23:43:03.059Z,12.47
2018-07-11T23:47:59.644Z,15.80
2018-07-11T23:52:56.274Z,19.37
2018-07-11T23:57:52.846Z,17.90
